Time;durP1;ratioP1;P1;durP2;ratioP2;P2;SDS_P1;SDS_P2;PMS_P1;PMS_P2;Temp;Humidity;BMP_temperature;BMP_pressure;BME280_temperature;BME280_humidity;BME280_pressure;Samples;Min_cycle;Max_cycle;Signal;HPM_P1;HPM_P2
2021/06/22 07:29:05;;;;;;;14.45;2.38;;;;;;;;;;6033888;22;20456;-46
2021/06/22 07:31:32;;;;;;;2.58;1.50;;;;;;;;;;4945983;28;20056;-40
2021/06/22 07:33:58;;;;;;;4.15;1.55;;;;;;;;;;4951652;29;20047;-41
2021/06/22 07:36:24;;;;;;;3.88;1.52;;;;;;;;;;4947509;29;20436;-42
2021/06/22 07:38:51;;;;;;;6.37;1.37;;;;;;;;;;4962089;28;20102;-40
2021/06/22 07:41:17;;;;;;;5.47;1.60;;;;;;;;;;4940812;29;20023;-41
2021/06/22 07:43:44;;;;;;;4.95;1.55;;;;;;;;;;4951417;28;20039;-42
2021/06/22 07:46:10;;;;;;;2.75;1.27;;;;;;;;;;4952135;29;20027;-41
2021/06/22 07:48:36;;;;;;;3.10;1.50;;;;;;;;;;4934254;29;20042;-42
2021/06/22 07:51:03;;;;;;;2.67;1.30;;;;;;;;;;4952032;29;20027;-43
2021/06/22 07:53:29;;;;;;;3.95;1.92;;;;;;;;;;4952097;29;20387;-42
2021/06/22 07:55:55;;;;;;;2.35;1.10;;;;;;;;;;4963232;28;20034;-41
2021/06/22 07:58:22;;;;;;;2.20;1.20;;;;;;;;;;4953074;28;20055;-44
2021/06/22 08:00:49;;;;;;;2.10;1.13;;;;;;;;;;4947412;28;20178;-41
2021/06/22 08:03:17;;;;;;;3.25;1.10;;;;;;;;;;4949168;29;20042;-44
2021/06/22 08:05:44;;;;;;;2.50;1.02;;;;;;;;;;4952365;28;20040;-40
2021/06/22 08:08:14;;;;;;;2.63;1.20;;;;;;;;;;4938422;29;20521;-42
2021/06/22 08:10:40;;;;;;;2.70;1.23;;;;;;;;;;4946969;29;20030;-43
2021/06/22 08:13:07;;;;;;;2.83;1.25;;;;;;;;;;4961037;28;20027;-43
2021/06/22 08:15:33;;;;;;;1.48;0.88;;;;;;;;;;4950552;29;20403;-42
2021/06/22 08:18:00;;;;;;;3.45;1.00;;;;;;;;;;4933038;29;20521;-42
2021/06/22 08:20:26;;;;;;;3.78;1.08;;;;;;;;;;4946980;29;20406;-42
2021/06/22 08:22:53;;;;;;;2.40;1.23;;;;;;;;;;4931080;29;20017;-45
2021/06/22 08:25:21;;;;;;;2.50;1.00;;;;;;;;;;4946089;29;20031;-43
2021/06/22 08:27:47;;;;;;;;;;;;;;;;;;4943299;29;20094;-41
2021/06/22 08:30:13;;;;;;;3.10;1.30;;;;;;;;;;4947484;28;20013;-42
2021/06/22 08:32:39;;;;;;;3.05;1.20;;;;;;;;;;4947283;29;20263;-42
2021/06/22 08:35:05;;;;;;;1.95;1.00;;;;;;;;;;4950235;29;20503;-43
2021/06/22 08:37:31;;;;;;;2.43;1.20;;;;;;;;;;4950172;29;20467;-41
2021/06/22 08:39:57;;;;;;;2.55;0.95;;;;;;;;;;4948912;29;20087;-41
2021/06/22 08:42:24;;;;;;;3.60;1.10;;;;;;;;;;4939195;29;20032;-41
2021/06/22 08:44:50;;;;;;;2.30;1.10;;;;;;;;;;4950692;29;20133;-42
2021/06/22 08:47:24;;;;;;;1.38;0.95;;;;;;;;;;4950913;29;20562;-42
2021/06/22 08:49:56;;;;;;;1.63;1.15;;;;;;;;;;4951125;28;20039;-42
2021/06/22 08:52:23;;;;;;;1.60;0.90;;;;;;;;;;4949819;29;20027;-42
2021/06/22 08:54:50;;;;;;;2.03;0.82;;;;;;;;;;4950962;28;20023;-43
2021/06/22 08:57:16;;;;;;;1.80;0.90;;;;;;;;;;4950877;29;20050;-43
2021/06/22 08:59:42;;;;;;;2.25;1.10;;;;;;;;;;4954355;29;20070;-44
2021/06/22 09:02:09;;;;;;;2.30;0.90;;;;;;;;;;4954406;29;20027;-43
2021/06/22 09:04:35;;;;;;;2.42;1.00;;;;;;;;;;4954528;29;20039;-43
2021/06/22 09:07:01;;;;;;;2.60;1.17;;;;;;;;;;4968816;28;20332;-41
2021/06/22 09:09:37;;;;;;;2.25;1.00;;;;;;;;;;4954635;29;20063;-41
2021/06/22 09:12:06;;;;;;;1.42;0.82;;;;;;;;;;4955199;29;20108;-42
2021/06/22 09:14:40;;;;;;;3.05;1.10;;;;;;;;;;4954493;28;20043;-42
2021/06/22 09:17:06;;;;;;;2.22;1.13;;;;;;;;;;4955084;28;20414;-43
2021/06/22 09:19:33;;;;;;;2.90;1.35;;;;;;;;;;4953367;29;20035;-41
2021/06/22 09:22:15;;;;;;;2.70;0.98;;;;;;;;;;4969855;28;20031;-42
2021/06/22 09:25:01;;;;;;;3.55;1.10;;;;;;;;;;4954992;29;20030;-42
2021/06/22 09:27:46;;;;;;;1.35;0.90;;;;;;;;;;4968669;28;20019;-44
2021/06/22 09:30:12;;;;;;;2.10;1.00;;;;;;;;;;4952810;29;20130;-42
2021/06/22 09:32:38;;;;;;;1.60;0.70;;;;;;;;;;4935333;29;20027;-43
2021/06/22 09:35:23;;;;;;;2.13;0.80;;;;;;;;;;4953456;29;20739;-41
2021/06/22 09:37:51;;;;;;;1.77;1.27;;;;;;;;;;4936761;29;20059;-41
2021/06/22 09:40:29;;;;;;;2.13;1.13;;;;;;;;;;4948759;29;20057;-43
2021/06/22 09:42:57;;;;;;;1.55;0.80;;;;;;;;;;4954463;29;20046;-41
2021/06/22 09:45:23;;;;;;;;;;;;;;;;;;4954516;29;20090;-42
2021/06/22 09:47:49;;;;;;;1.60;0.90;;;;;;;;;;4954477;29;19915;-42
2021/06/22 09:50:34;;;;;;;7.80;1.33;;;;;;;;;;4954219;29;20031;-43
2021/06/22 09:53:24;;;;;;;2.38;0.93;;;;;;;;;;4954155;29;20159;-43
2021/06/22 09:55:50;;;;;;;1.60;0.80;;;;;;;;;;4935691;29;20046;-43
2021/06/22 09:58:16;;;;;;;1.30;0.70;;;;;;;;;;4968130;28;20027;-42
2021/06/22 10:00:43;;;;;;;1.10;0.60;;;;;;;;;;4951609;28;20034;-44
2021/06/22 10:03:10;;;;;;;1.08;0.63;;;;;;;;;;4951513;28;20034;-42
2021/06/22 10:05:52;;;;;;;2.65;1.02;;;;;;;;;;4967956;28;20047;-44
2021/06/22 10:08:18;;;;;;;1.42;0.70;;;;;;;;;;4937138;29;20123;-43
2021/06/22 10:10:44;;;;;;;1.20;0.75;;;;;;;;;;4953134;28;20027;-43
2021/06/22 10:13:30;;;;;;;1.92;0.80;;;;;;;;;;4953745;29;20023;-43
2021/06/22 10:16:15;;;;;;;1.38;0.93;;;;;;;;;;4953274;29;20101;-43
2021/06/22 10:18:41;;;;;;;1.58;0.80;;;;;;;;;;4953266;29;20376;-42
2021/06/22 10:21:10;;;;;;;2.08;0.82;;;;;;;;;;4953058;29;20023;-43
2021/06/22 10:23:36;;;;;;;1.38;0.80;;;;;;;;;;4953519;29;20157;-44
2021/06/22 10:26:02;;;;;;;1.60;1.00;;;;;;;;;;4935955;29;20436;-43
2021/06/22 10:28:28;;;;;;;1.88;0.80;;;;;;;;;;4953124;29;20055;-43
2021/06/22 10:30:55;;;;;;;1.27;0.73;;;;;;;;;;4935626;29;20074;-42
2021/06/22 10:33:21;;;;;;;1.52;0.70;;;;;;;;;;4958069;28;20412;-42
2021/06/22 10:35:47;;;;;;;2.25;1.20;;;;;;;;;;4949970;29;20058;-41
2021/06/22 10:38:14;;;;;;;2.50;1.00;;;;;;;;;;4935897;29;20062;-42
2021/06/22 10:40:42;;;;;;;2.40;1.00;;;;;;;;;;4963777;28;20024;-43
2021/06/22 10:43:08;;;;;;;2.05;1.10;;;;;;;;;;4944617;29;20126;-44
2021/06/22 10:45:52;;;;;;;1.98;0.80;;;;;;;;;;4935314;29;20039;-42
2021/06/22 10:48:19;;;;;;;1.65;0.80;;;;;;;;;;4952635;29;20035;-43
2021/06/22 10:50:45;;;;;;;1.90;1.00;;;;;;;;;;4967528;28;20027;-43
2021/06/22 10:53:11;;;;;;;2.28;0.82;;;;;;;;;;4967804;28;20133;-44
2021/06/22 10:55:41;;;;;;;2.08;1.23;;;;;;;;;;4952896;29;20028;-43
2021/06/22 10:58:14;;;;;;;1.35;0.93;;;;;;;;;;4952806;28;20098;-44
2021/06/22 11:00:40;;;;;;;2.67;1.35;;;;;;;;;;4952750;29;20031;-43
2021/06/22 11:03:07;;;;;;;1.92;0.90;;;;;;;;;;4934707;29;20078;-43
2021/06/22 11:05:34;;;;;;;3.63;1.00;;;;;;;;;;4952795;29;20031;-43
2021/06/22 11:08:13;;;;;;;1.20;0.88;;;;;;;;;;4965853;28;20113;-45
2021/06/22 11:10:39;;;;;;;1.50;0.88;;;;;;;;;;4947563;29;20023;-43
2021/06/22 11:13:06;;;;;;;1.98;1.20;;;;;;;;;;4952506;29;20032;-43
2021/06/22 11:15:53;;;;;;;1.67;1.05;;;;;;;;;;4952418;29;20083;-44
2021/06/22 11:18:20;;;;;;;2.75;1.13;;;;;;;;;;4934351;29;20114;-42
2021/06/22 11:21:06;;;;;;;1.52;1.13;;;;;;;;;;4952359;28;20074;-44
2021/06/22 11:23:52;;;;;;;2.10;1.10;;;;;;;;;;4943361;28;20063;-42
2021/06/22 11:26:18;;;;;;;1.90;1.05;;;;;;;;;;4952634;29;20023;-42
2021/06/22 11:28:54;;;;;;;1.55;1.02;;;;;;;;;;4935304;29;20047;-43
2021/06/22 11:31:34;;;;;;;1.98;1.20;;;;;;;;;;4935200;29;20115;-42
2021/06/22 11:34:05;;;;;;;2.75;1.00;;;;;;;;;;4952531;29;20027;-43
2021/06/22 11:36:31;;;;;;;1.63;1.10;;;;;;;;;;4951726;29;20023;-42
2021/06/22 11:39:08;;;;;;;1.70;1.08;;;;;;;;;;4934935;29;20595;-42
2021/06/22 11:41:34;;;;;;;;;;;;;;;;;;4953858;28;20067;-42
2021/06/22 11:44:09;;;;;;;2.03;1.20;;;;;;;;;;4952229;29;19990;-42
2021/06/22 11:46:36;;;;;;;2.03;1.23;;;;;;;;;;4952094;29;20038;-43
2021/06/22 11:49:03;;;;;;;2.78;1.30;;;;;;;;;;4934175;29;20089;-44
2021/06/22 11:51:50;;;;;;;2.75;1.40;;;;;;;;;;4952227;29;20023;-42
2021/06/22 11:54:42;;;;;;;2.60;1.30;;;;;;;;;;4912454;28;20031;-42
2021/06/22 11:57:14;;;;;;;2.17;1.40;;;;;;;;;;4950286;28;20402;-41
2021/06/22 11:59:40;;;;;;;2.13;1.30;;;;;;;;;;4951055;29;20023;-43
2021/06/22 12:02:06;;;;;;;1.77;1.17;;;;;;;;;;4952076;29;20031;-44
2021/06/22 12:04:32;;;;;;;2.40;1.30;;;;;;;;;;4951532;29;20054;-42
2021/06/22 12:06:58;;;;;;;2.75;1.42;;;;;;;;;;4934094;29;20254;-42
2021/06/22 12:09:25;;;;;;;3.25;1.73;;;;;;;;;;4958317;28;20459;-43
2021/06/22 12:11:51;;;;;;;1.85;1.27;;;;;;;;;;4934074;29;20019;-43
2021/06/22 12:14:19;;;;;;;2.38;1.50;;;;;;;;;;4966623;28;20054;-43
2021/06/22 12:16:45;;;;;;;2.08;1.25;;;;;;;;;;4947503;28;20051;-42
2021/06/22 12:19:17;;;;;;;2.78;1.40;;;;;;;;;;4945250;29;20022;-44
2021/06/22 12:21:53;;;;;;;2.33;1.50;;;;;;;;;;4937995;29;20035;-42
2021/06/22 12:24:20;;;;;;;3.08;1.85;;;;;;;;;;4934376;29;20375;-42
2021/06/22 12:26:49;;;;;;;2.97;1.55;;;;;;;;;;4951628;29;20027;-42
2021/06/22 12:29:22;;;;;;;2.45;1.67;;;;;;;;;;4952176;28;20208;-42
2021/06/22 12:31:50;;;;;;;3.55;1.70;;;;;;;;;;4964450;28;20383;-41
2021/06/22 12:34:16;;;;;;;;;;;;;;;;;;4965477;28;20059;-42
2021/06/22 12:36:45;;;;;;;2.05;1.48;;;;;;;;;;4970563;28;19910;-43
2021/06/22 12:39:16;;;;;;;2.47;1.52;;;;;;;;;;4958198;29;20110;-43
2021/06/22 12:41:44;;;;;;;3.05;1.70;;;;;;;;;;4958022;28;20101;-42
2021/06/22 12:44:13;;;;;;;2.13;1.40;;;;;;;;;;4958342;29;20460;-44
2021/06/22 12:46:40;;;;;;;2.65;1.50;;;;;;;;;;4940603;29;20110;-42
2021/06/22 12:49:07;;;;;;;;;;;;;;;;;;4958740;28;20042;-44
2021/06/22 12:51:33;;;;;;;;;;;;;;;;;;4958362;28;19997;-44
2021/06/22 12:53:59;;;;;;;2.63;1.57;;;;;;;;;;4969109;28;19950;-44
2021/06/22 12:56:31;;;;;;;2.80;1.70;;;;;;;;;;4958002;28;20031;-44
2021/06/22 12:59:03;;;;;;;2.50;1.55;;;;;;;;;;4958068;29;20043;-43
2021/06/22 13:01:33;;;;;;;3.00;1.60;;;;;;;;;;4957845;28;20031;-43
2021/06/22 13:04:01;;;;;;;3.97;1.60;;;;;;;;;;4957835;29;20030;-43
2021/06/22 13:06:28;;;;;;;2.58;1.80;;;;;;;;;;4958469;28;20031;-44
2021/06/22 13:08:55;;;;;;;2.22;1.70;;;;;;;;;;4957366;29;20035;-43
2021/06/22 13:11:31;;;;;;;2.92;1.77;;;;;;;;;;4957940;29;20811;-44
2021/06/22 13:14:07;;;;;;;4.20;2.20;;;;;;;;;;4957009;28;20066;-43
2021/06/22 13:16:34;;;;;;;3.75;2.08;;;;;;;;;;4963691;28;20045;-43
2021/06/22 13:19:04;;;;;;;5.45;2.85;;;;;;;;;;4964163;28;20159;-44
2021/06/22 13:21:47;;;;;;;4.97;2.50;;;;;;;;;;4945647;28;20098;-43
2021/06/22 13:24:37;;;;;;;6.32;2.90;;;;;;;;;;4940802;28;20064;-43
2021/06/22 13:27:06;;;;;;;5.00;2.45;;;;;;;;;;4952176;28;20448;-42
2021/06/22 13:29:48;;;;;;;4.00;2.50;;;;;;;;;;4956582;28;20075;-43
2021/06/22 13:32:23;;;;;;;6.90;3.35;;;;;;;;;;4957116;28;20107;-44
2021/06/22 13:34:49;;;;;;;3.97;2.70;;;;;;;;;;4957728;28;20028;-42
2021/06/22 13:37:15;;;;;;;4.38;2.92;;;;;;;;;;4940520;28;20072;-43
2021/06/22 13:39:54;;;;;;;3.63;2.63;;;;;;;;;;4957567;28;20034;-43
2021/06/22 13:42:20;;;;;;;3.88;2.83;;;;;;;;;;4966879;28;20035;-42
2021/06/22 13:44:49;;;;;;;5.97;3.25;;;;;;;;;;4954173;29;20027;-43
2021/06/22 13:47:34;;;;;;;4.20;3.00;;;;;;;;;;4954673;29;20031;-43
2021/06/22 13:50:18;;;;;;;5.65;3.53;;;;;;;;;;4954442;29;20046;-45
2021/06/22 13:52:49;;;;;;;4.93;3.30;;;;;;;;;;4950538;29;20058;-44
2021/06/22 13:55:31;;;;;;;8.38;3.50;;;;;;;;;;4952539;29;20019;-43
2021/06/22 13:57:57;;;;;;;6.90;3.75;;;;;;;;;;4954026;29;20076;-44
2021/06/22 14:00:23;;;;;;;5.75;3.22;;;;;;;;;;4953961;29;20102;-46
2021/06/22 14:02:50;;;;;;;7.68;3.60;;;;;;;;;;4952876;29;20019;-44
2021/06/22 14:05:18;;;;;;;6.38;3.88;;;;;;;;;;4953751;28;20074;-44
2021/06/22 14:07:44;;;;;;;5.93;3.85;;;;;;;;;;4953903;29;20107;-44
2021/06/22 14:10:11;;;;;;;6.88;4.47;;;;;;;;;;4953695;29;20062;-44
2021/06/22 14:12:37;;;;;;;5.93;4.30;;;;;;;;;;4953959;29;20484;-46
2021/06/22 14:15:06;;;;;;;6.20;4.80;;;;;;;;;;4961999;28;20433;-45
2021/06/22 14:17:32;;;;;;;6.97;4.38;;;;;;;;;;4953851;29;20309;-45
2021/06/22 14:19:58;;;;;;;5.72;4.05;;;;;;;;;;4954089;29;20024;-45
2021/06/22 14:22:24;;;;;;;6.15;4.65;;;;;;;;;;4953964;29;20114;-44
2021/06/22 14:24:50;;;;;;;8.70;5.15;;;;;;;;;;4965928;28;20041;-43
2021/06/22 14:27:16;;;;;;;5.65;4.60;;;;;;;;;;4954254;28;20023;-44
2021/06/22 14:29:42;;;;;;;7.00;4.75;;;;;;;;;;4954235;29;20066;-47
2021/06/22 14:32:10;;;;;;;6.65;4.70;;;;;;;;;;4954235;28;20051;-45
2021/06/22 14:34:36;;;;;;;6.75;4.88;;;;;;;;;;4953591;28;20082;-44
2021/06/22 14:37:03;;;;;;;8.10;4.72;;;;;;;;;;4953838;29;20506;-45
2021/06/22 14:39:29;;;;;;;7.17;5.83;;;;;;;;;;4954320;29;20133;-43
2021/06/22 14:41:55;;;;;;;7.25;4.95;;;;;;;;;;4953912;29;20031;-44
2021/06/22 14:44:21;;;;;;;9.07;5.47;;;;;;;;;;4960676;28;20391;-43
2021/06/22 14:46:47;;;;;;;7.93;5.30;;;;;;;;;;4960619;28;20127;-43
2021/06/22 14:49:13;;;;;;;7.68;5.30;;;;;;;;;;4962654;28;20031;-43
2021/06/22 14:51:39;;;;;;;8.77;5.75;;;;;;;;;;4953454;28;20030;-44
2021/06/22 14:54:05;;;;;;;8.23;5.28;;;;;;;;;;4952340;28;20023;-42
2021/06/22 14:56:32;;;;;;;7.43;5.15;;;;;;;;;;4953090;29;20439;-43
2021/06/22 14:58:58;;;;;;;7.57;5.73;;;;;;;;;;4953671;29;20055;-44
2021/06/22 15:01:27;;;;;;;9.75;5.88;;;;;;;;;;4953374;28;20024;-45
2021/06/22 15:03:53;;;;;;;13.13;6.22;;;;;;;;;;4952902;29;20031;-45
2021/06/22 15:06:19;;;;;;;8.68;6.00;;;;;;;;;;4953060;29;20078;-45
2021/06/22 15:08:45;;;;;;;8.48;4.97;;;;;;;;;;4953020;29;20076;-44
2021/06/22 15:11:11;;;;;;;7.73;5.23;;;;;;;;;;4953353;28;20042;-43
2021/06/22 15:13:40;;;;;;;6.68;5.20;;;;;;;;;;4959639;28;20094;-43
2021/06/22 15:16:06;;;;;;;8.48;4.90;;;;;;;;;;4953171;29;20329;-42
2021/06/22 15:18:32;;;;;;;8.07;5.22;;;;;;;;;;4958299;28;20038;-45
2021/06/22 15:20:59;;;;;;;9.95;6.25;;;;;;;;;;4948712;28;20035;-43
2021/06/22 15:23:25;;;;;;;7.68;5.40;;;;;;;;;;4956112;28;20031;-44
2021/06/22 15:25:51;;;;;;;7.53;5.30;;;;;;;;;;4953241;29;20383;-43
2021/06/22 15:28:21;;;;;;;7.13;5.35;;;;;;;;;;4952552;29;20481;-43
2021/06/22 15:30:48;;;;;;;7.55;5.72;;;;;;;;;;4947710;29;20061;-45
2021/06/22 15:33:14;;;;;;;6.95;5.45;;;;;;;;;;4944485;28;20019;-42
2021/06/22 15:35:41;;;;;;;8.50;5.55;;;;;;;;;;4944849;29;20027;-43
2021/06/22 15:38:07;;;;;;;6.78;5.10;;;;;;;;;;4952616;29;20027;-42
2021/06/22 15:40:33;;;;;;;8.13;5.72;;;;;;;;;;4952682;29;20628;-42
2021/06/22 15:43:00;;;;;;;8.93;5.50;;;;;;;;;;4953205;29;20027;-43
2021/06/22 15:45:31;;;;;;;7.45;5.30;;;;;;;;;;4963516;28;20444;-43
2021/06/22 15:47:59;;;;;;;7.95;5.93;;;;;;;;;;4952309;29;20111;-41
2021/06/22 15:50:28;;;;;;;6.93;5.07;;;;;;;;;;4951992;28;20130;-42
2021/06/22 15:52:54;;;;;;;8.98;5.90;;;;;;;;;;4943009;28;20061;-41
2021/06/22 15:55:21;;;;;;;11.02;5.78;;;;;;;;;;4952671;28;20085;-40
2021/06/22 15:57:49;;;;;;;8.25;6.22;;;;;;;;;;4951836;29;20440;-41
2021/06/22 16:00:15;;;;;;;7.95;5.40;;;;;;;;;;4958028;28;20034;-42
2021/06/22 16:02:42;;;;;;;9.35;5.70;;;;;;;;;;4942122;28;20101;-46
2021/06/22 16:05:08;;;;;;;8.65;5.53;;;;;;;;;;4957803;28;20039;-43
2021/06/22 16:07:38;;;;;;;7.53;5.68;;;;;;;;;;4962022;28;20515;-44
2021/06/22 16:10:04;;;;;;;8.57;5.25;;;;;;;;;;4938914;28;20069;-49
2021/06/22 16:12:30;;;;;;;13.07;5.53;;;;;;;;;;4947069;29;20376;-46
2021/06/22 16:14:56;;;;;;;11.73;5.60;;;;;;;;;;4962290;28;20027;-46
2021/06/22 16:17:25;;;;;;;11.40;5.95;;;;;;;;;;4951438;28;20115;-45
2021/06/22 16:19:51;;;;;;;7.72;5.13;;;;;;;;;;4951548;28;20123;-46
2021/06/22 16:22:17;;;;;;;11.23;6.00;;;;;;;;;;4951628;29;20032;-46
2021/06/22 16:24:43;;;;;;;10.20;5.35;;;;;;;;;;4951290;29;20528;-46
2021/06/22 16:27:09;;;;;;;10.73;5.85;;;;;;;;;;4951927;29;20380;-45
2021/06/22 16:29:35;;;;;;;7.53;5.03;;;;;;;;;;4951179;28;20047;-46
2021/06/22 16:32:01;;;;;;;8.43;5.20;;;;;;;;;;4962900;28;20494;-45
2021/06/22 16:34:27;;;;;;;7.60;4.93;;;;;;;;;;4957205;28;20051;-46
2021/06/22 16:36:54;;;;;;;8.85;5.50;;;;;;;;;;4951331;29;20106;-48
2021/06/22 16:39:20;;;;;;;8.00;5.55;;;;;;;;;;4951890;28;20087;-46
2021/06/22 16:41:46;;;;;;;10.30;5.82;;;;;;;;;;4964485;28;20035;-46
2021/06/22 16:44:12;;;;;;;6.90;5.78;;;;;;;;;;4952316;29;20020;-46
2021/06/22 16:46:39;;;;;;;7.68;5.28;;;;;;;;;;4952269;29;20022;-44
2021/06/22 16:49:08;;;;;;;9.20;5.50;;;;;;;;;;4952268;29;20051;-45
2021/06/22 16:51:35;;;;;;;7.43;5.50;;;;;;;;;;4953328;28;20138;-45
2021/06/22 16:54:01;;;;;;;7.32;5.68;;;;;;;;;;4952289;29;20031;-45
2021/06/22 16:56:27;;;;;;;8.32;5.28;;;;;;;;;;4952985;29;20031;-45
2021/06/22 16:58:56;;;;;;;9.50;6.50;;;;;;;;;;4953363;29;20047;-43
2021/06/22 17:01:22;;;;;;;7.60;5.10;;;;;;;;;;4945811;28;20023;-47
2021/06/22 17:03:48;;;;;;;7.72;5.30;;;;;;;;;;4951098;29;20019;-43
2021/06/22 17:06:14;;;;;;;7.85;4.85;;;;;;;;;;4951019;29;20019;-41
2021/06/22 17:08:40;;;;;;;10.60;5.32;;;;;;;;;;4950945;29;20492;-44
2021/06/22 17:11:07;;;;;;;5.68;4.60;;;;;;;;;;4950990;29;20099;-44
2021/06/22 17:13:34;;;;;;;8.13;4.40;;;;;;;;;;4950814;28;20122;-46
2021/06/22 17:16:00;;;;;;;6.63;4.30;;;;;;;;;;4950260;28;20037;-44
2021/06/22 17:18:26;;;;;;;5.95;4.80;;;;;;;;;;4953718;29;20089;-45
2021/06/22 17:20:53;;;;;;;7.00;4.38;;;;;;;;;;4955035;29;20019;-43
2021/06/22 17:23:19;;;;;;;6.80;3.93;;;;;;;;;;4937504;29;20023;-43
2021/06/22 17:25:45;;;;;;;7.47;4.50;;;;;;;;;;4958301;28;20488;-43
2021/06/22 17:28:14;;;;;;;6.40;3.80;;;;;;;;;;4952252;28;20042;-42
2021/06/22 17:30:40;;;;;;;7.07;4.38;;;;;;;;;;4954651;28;20058;-43
2021/06/22 17:33:07;;;;;;;9.17;4.47;;;;;;;;;;4953862;29;20090;-42
2021/06/22 17:35:36;;;;;;;;;;;;;;;;;;4954119;29;20106;-43
2021/06/22 17:38:02;;;;;;;8.13;4.53;;;;;;;;;;4952584;29;19910;-42
2021/06/22 17:40:30;;;;;;;8.57;4.70;;;;;;;;;;4954581;29;20031;-42
2021/06/22 17:42:56;;;;;;;8.93;4.28;;;;;;;;;;4954502;29;20015;-42
2021/06/22 17:45:23;;;;;;;9.75;4.75;;;;;;;;;;4954757;29;20027;-42
2021/06/22 17:47:50;;;;;;;7.63;4.73;;;;;;;;;;4953835;28;20034;-44
2021/06/22 17:50:20;;;;;;;8.90;4.22;;;;;;;;;;4936255;29;20035;-43
2021/06/22 17:52:47;;;;;;;13.50;4.88;;;;;;;;;;4959320;28;20114;-43
2021/06/22 17:55:20;;;;;;;10.13;4.95;;;;;;;;;;4967264;28;20045;-42
2021/06/22 17:57:47;;;;;;;7.68;4.43;;;;;;;;;;4936895;29;20035;-43
2021/06/22 18:00:14;;;;;;;10.25;4.80;;;;;;;;;;4954036;29;20516;-43
2021/06/22 18:02:41;;;;;;;7.20;3.97;;;;;;;;;;4951493;29;20023;-44
2021/06/22 18:05:07;;;;;;;7.65;4.07;;;;;;;;;;4935160;29;20055;-46
2021/06/22 18:07:33;;;;;;;8.57;4.50;;;;;;;;;;4961712;28;20027;-45
2021/06/22 18:10:02;;;;;;;9.02;4.57;;;;;;;;;;4953797;29;20046;-43
2021/06/22 18:12:28;;;;;;;8.88;5.05;;;;;;;;;;4952438;29;20043;-43
2021/06/22 18:14:54;;;;;;;8.70;5.13;;;;;;;;;;4953935;28;20024;-43
2021/06/22 18:17:23;;;;;;;9.07;5.13;;;;;;;;;;4953448;29;20035;-42
2021/06/22 18:19:49;;;;;;;8.18;5.68;;;;;;;;;;4952614;28;20089;-42
2021/06/22 18:22:15;;;;;;;7.75;5.30;;;;;;;;;;4953633;29;20027;-42
2021/06/22 18:24:43;;;;;;;8.60;5.47;;;;;;;;;;4959495;28;20097;-44
2021/06/22 18:27:09;;;;;;;9.05;5.68;;;;;;;;;;4952609;28;20042;-44
2021/06/22 18:29:39;;;;;;;7.83;5.40;;;;;;;;;;4952795;28;20122;-42
2021/06/22 18:32:05;;;;;;;9.15;5.63;;;;;;;;;;4935167;29;20023;-42
2021/06/22 18:34:34;;;;;;;9.30;6.00;;;;;;;;;;4953231;29;20023;-43
2021/06/22 18:37:00;;;;;;;8.40;5.90;;;;;;;;;;4943900;29;20440;-42
2021/06/22 18:39:26;;;;;;;10.55;6.05;;;;;;;;;;4952538;29;20035;-42
2021/06/22 18:41:52;;;;;;;9.80;6.65;;;;;;;;;;4952978;29;20079;-49
2021/06/22 18:44:18;;;;;;;8.50;5.70;;;;;;;;;;4937957;28;20042;-41
2021/06/22 18:46:45;;;;;;;10.85;6.45;;;;;;;;;;4945829;29;20126;-41
2021/06/22 18:49:11;;;;;;;8.90;6.30;;;;;;;;;;4935406;29;20072;-42
2021/06/22 18:51:37;;;;;;;11.43;6.20;;;;;;;;;;4935945;29;20391;-42
2021/06/22 18:54:04;;;;;;;9.43;6.47;;;;;;;;;;4952468;29;20027;-42
2021/06/22 18:56:30;;;;;;;11.02;6.50;;;;;;;;;;4952647;29;20031;-43
2021/06/22 18:58:56;;;;;;;9.60;6.28;;;;;;;;;;4953109;28;20023;-44
2021/06/22 19:01:22;;;;;;;11.15;6.60;;;;;;;;;;4960900;28;20030;-45
2021/06/22 19:03:48;;;;;;;11.10;6.95;;;;;;;;;;4954407;28;20033;-48
2021/06/22 19:06:15;;;;;;;9.25;7.38;;;;;;;;;;4946578;29;20030;-47
2021/06/22 19:08:41;;;;;;;14.03;7.30;;;;;;;;;;4949441;29;20317;-45
2021/06/22 19:11:07;;;;;;;8.52;7.07;;;;;;;;;;4951108;28;20275;-45
2021/06/22 19:13:33;;;;;;;9.93;8.38;;;;;;;;;;4950639;29;20027;-44
2021/06/22 19:16:00;;;;;;;11.77;7.30;;;;;;;;;;4952917;28;20050;-48
2021/06/22 19:18:26;;;;;;;12.93;8.57;;;;;;;;;;4951442;28;20138;-47
2021/06/22 19:20:52;;;;;;;12.23;7.97;;;;;;;;;;4950558;28;20081;-47
2021/06/22 19:23:19;;;;;;;11.43;7.67;;;;;;;;;;4951272;29;20126;-47
2021/06/22 19:25:45;;;;;;;11.40;7.55;;;;;;;;;;4951088;28;20129;-46
2021/06/22 19:28:11;;;;;;;12.63;8.30;;;;;;;;;;4950846;29;20050;-47
2021/06/22 19:30:38;;;;;;;11.75;8.95;;;;;;;;;;4948777;29;20510;-45
2021/06/22 19:33:06;;;;;;;12.10;8.13;;;;;;;;;;4950994;28;20047;-45
2021/06/22 19:35:35;;;;;;;14.13;8.35;;;;;;;;;;4951537;28;20422;-45
2021/06/22 19:38:01;;;;;;;13.40;8.65;;;;;;;;;;4950544;28;20035;-50
2021/06/22 19:40:30;;;;;;;13.85;8.63;;;;;;;;;;4947768;28;20176;-45
2021/06/22 19:42:56;;;;;;;12.75;9.27;;;;;;;;;;4950184;29;20049;-47
2021/06/22 19:45:22;;;;;;;12.70;8.68;;;;;;;;;;4950350;29;20102;-47
2021/06/22 19:47:48;;;;;;;11.35;8.20;;;;;;;;;;4950716;28;20042;-45
2021/06/22 19:50:14;;;;;;;14.68;9.25;;;;;;;;;;4950509;29;20223;-45
2021/06/22 19:52:41;;;;;;;15.35;8.93;;;;;;;;;;4950974;29;20026;-46
2021/06/22 19:55:08;;;;;;;14.88;10.00;;;;;;;;;;4950340;29;20091;-46
2021/06/22 19:57:34;;;;;;;14.93;9.90;;;;;;;;;;4953407;28;20027;-46
2021/06/22 20:00:00;;;;;;;15.57;9.52;;;;;;;;;;4955439;28;20468;-49
2021/06/22 20:02:26;;;;;;;14.95;8.80;;;;;;;;;;4950870;29;20019;-49
2021/06/22 20:04:53;;;;;;;13.55;9.25;;;;;;;;;;4950875;28;20538;-49
2021/06/22 20:07:19;;;;;;;12.50;9.05;;;;;;;;;;4951345;28;20066;-47
2021/06/22 20:09:45;;;;;;;14.90;9.70;;;;;;;;;;4962311;28;20106;-49
2021/06/22 20:12:11;;;;;;;16.20;9.48;;;;;;;;;;4951381;28;20019;-45
2021/06/22 20:14:40;;;;;;;14.30;9.93;;;;;;;;;;4948862;29;20531;-46
2021/06/22 20:17:06;;;;;;;14.18;9.23;;;;;;;;;;4949175;28;20607;-47
2021/06/22 20:19:33;;;;;;;16.42;9.07;;;;;;;;;;4948459;28;20058;-46
2021/06/22 20:22:00;;;;;;;16.42;10.10;;;;;;;;;;4947356;28;20064;-46
2021/06/22 20:24:26;;;;;;;12.88;9.60;;;;;;;;;;4948608;29;20031;-46
2021/06/22 20:26:52;;;;;;;16.55;9.50;;;;;;;;;;4948753;28;20086;-47
2021/06/22 20:29:18;;;;;;;14.20;9.55;;;;;;;;;;4948218;29;20051;-46
2021/06/22 20:31:45;;;;;;;13.65;9.32;;;;;;;;;;4949350;28;20051;-45
2021/06/22 20:34:11;;;;;;;15.35;10.05;;;;;;;;;;4950235;29;20470;-48
2021/06/22 20:36:37;;;;;;;13.40;8.95;;;;;;;;;;4949887;29;20047;-47
2021/06/22 20:39:04;;;;;;;14.80;9.40;;;;;;;;;;4950679;29;20134;-46
2021/06/22 20:41:30;;;;;;;12.30;9.00;;;;;;;;;;4949992;29;20035;-47
2021/06/22 20:43:56;;;;;;;17.45;11.32;;;;;;;;;;4950239;29;20046;-46
2021/06/22 20:46:25;;;;;;;17.38;10.48;;;;;;;;;;4950826;29;20034;-46
2021/06/22 20:48:51;;;;;;;15.10;9.77;;;;;;;;;;4949929;28;20213;-46
2021/06/22 20:51:17;;;;;;;16.17;9.70;;;;;;;;;;4953125;28;20023;-46
2021/06/22 20:53:43;;;;;;;20.42;9.77;;;;;;;;;;4954658;28;20024;-44
2021/06/22 20:56:09;;;;;;;13.32;9.82;;;;;;;;;;4953851;29;20148;-43
2021/06/22 20:58:38;;;;;;;16.50;9.10;;;;;;;;;;4967553;28;20032;-44
2021/06/22 21:01:04;;;;;;;14.75;9.65;;;;;;;;;;4959057;28;20110;-45
2021/06/22 21:03:30;;;;;;;18.52;9.88;;;;;;;;;;4958067;28;20028;-43
2021/06/22 21:05:56;;;;;;;17.90;9.10;;;;;;;;;;4952604;29;20031;-44
2021/06/22 21:08:22;;;;;;;19.55;10.15;;;;;;;;;;4954839;29;20047;-44
2021/06/22 21:10:50;;;;;;;14.50;10.60;;;;;;;;;;4955290;29;20039;-43
2021/06/22 21:13:17;;;;;;;14.55;9.18;;;;;;;;;;4954907;29;20258;-43
